createdAt,value
2023-10-24T00:00:43.907Z,100803.78
2023-10-24T00:03:10.404Z,100808.94
2023-10-24T00:05:37.066Z,100804.78
2023-10-24T00:08:03.631Z,100797.13
2023-10-24T00:10:31.616Z,100771.25
2023-10-24T00:12:58.089Z,100784.06
2023-10-24T00:15:24.636Z,100795.66
2023-10-24T00:17:51.146Z,100807.94
2023-10-24T00:20:17.920Z,100804.34
2023-10-24T00:22:44.483Z,100802.75
2023-10-24T00:25:11.334Z,100805.00
2023-10-24T00:27:37.858Z,100799.94
2023-10-24T00:30:04.754Z,100788.16
2023-10-24T00:32:31.315Z,100782.69
2023-10-24T00:34:57.806Z,100779.03
2023-10-24T00:37:24.372Z,100780.69
2023-10-24T00:39:50.846Z,100772.53
2023-10-24T00:42:17.295Z,100759.50
2023-10-24T00:44:43.750Z,100758.50
2023-10-24T00:47:10.719Z,100752.88
2023-10-24T00:49:37.235Z,100755.56
2023-10-24T00:52:04.022Z,100759.66
2023-10-24T00:54:32.813Z,100755.25
2023-10-24T00:56:59.724Z,100749.28
2023-10-24T00:59:27.746Z,100748.50
2023-10-24T01:01:55.153Z,100744.00
2023-10-24T01:04:23.484Z,100735.53
2023-10-24T01:06:49.972Z,100705.91
2023-10-24T01:09:16.727Z,100719.84
2023-10-24T01:11:43.435Z,100722.03
2023-10-24T01:14:09.927Z,100727.31
2023-10-24T01:16:44.561Z,100731.34
2023-10-24T01:19:14.973Z,100723.00
2023-10-24T01:21:46.679Z,100726.06
2023-10-24T01:24:18.191Z,100715.16
2023-10-24T01:26:45.499Z,100707.03
2023-10-24T01:29:12.510Z,100718.84
2023-10-24T01:31:39.205Z,100726.94
2023-10-24T01:34:05.875Z,100716.94
2023-10-24T01:36:32.555Z,100706.84
2023-10-24T01:38:59.043Z,100698.06
2023-10-24T01:41:25.560Z,100687.31
2023-10-24T01:43:52.864Z,100690.59
2023-10-24T01:46:19.471Z,100694.75
2023-10-24T01:48:46.068Z,100688.78
2023-10-24T01:51:12.581Z,100687.19
2023-10-24T01:53:39.055Z,100676.03
2023-10-24T01:56:05.540Z,100682.28
2023-10-24T01:58:32.136Z,100662.31
2023-10-24T02:00:58.747Z,100653.78
2023-10-24T02:03:25.344Z,100647.81
2023-10-24T02:05:51.893Z,100647.34
2023-10-24T02:08:18.390Z,100633.72
2023-10-24T02:10:45.012Z,100632.81
2023-10-24T02:13:11.926Z,100617.97
2023-10-24T02:15:38.648Z,100610.41
2023-10-24T02:18:05.391Z,100603.13
2023-10-24T02:20:31.934Z,100604.34
2023-10-24T02:22:58.430Z,100601.97
2023-10-24T02:25:24.917Z,100604.00
2023-10-24T02:27:53.591Z,100598.13
2023-10-24T02:30:20.152Z,100591.94
2023-10-24T02:32:46.764Z,100584.09
2023-10-24T02:35:13.317Z,100576.84
2023-10-24T02:37:39.880Z,100568.66
2023-10-24T02:40:09.160Z,100558.06
2023-10-24T02:42:36.024Z,100557.06
2023-10-24T02:45:02.572Z,100560.88
2023-10-24T02:47:29.138Z,100562.00
2023-10-24T02:49:56.217Z,100558.59
2023-10-24T02:52:22.750Z,100557.97
2023-10-24T02:54:50.221Z,100553.09
2023-10-24T02:57:17.619Z,100547.25
2023-10-24T02:59:44.087Z,100545.56
2023-10-24T03:02:10.574Z,100548.59
2023-10-24T03:04:37.182Z,100552.13
2023-10-24T03:07:04.223Z,100546.25
2023-10-24T03:09:30.682Z,100537.47
2023-10-24T03:11:57.138Z,100534.97
2023-10-24T03:14:23.603Z,100541.06
2023-10-24T03:16:50.284Z,100538.81
2023-10-24T03:19:17.040Z,100533.81
2023-10-24T03:21:43.567Z,100525.25
2023-10-24T03:24:10.357Z,100533.63
2023-10-24T03:26:37.573Z,100535.88
2023-10-24T03:29:04.203Z,100525.72
2023-10-24T03:31:31.459Z,100510.19
2023-10-24T03:33:58.081Z,100499.81
2023-10-24T03:36:24.799Z,100488.78
2023-10-24T03:38:51.265Z,100481.38
2023-10-24T03:41:18.000Z,100472.81
2023-10-24T03:43:49.446Z,100461.56
2023-10-24T03:46:16.384Z,100455.38
2023-10-24T03:48:43.129Z,100450.31
2023-10-24T03:51:09.663Z,100451.44
2023-10-24T03:53:36.176Z,100429.09
2023-10-24T03:56:02.674Z,100414.94
2023-10-24T03:58:29.324Z,100421.47
2023-10-24T04:00:56.090Z,100437.00
2023-10-24T04:03:23.131Z,100442.41
2023-10-24T04:05:49.842Z,100437.00
2023-10-24T04:08:16.474Z,100435.69
2023-10-24T04:10:43.077Z,100431.22
2023-10-24T04:13:09.604Z,100417.69
2023-10-24T04:15:37.367Z,100410.09
2023-10-24T04:18:04.852Z,100409.28
2023-10-24T04:20:34.486Z,100401.44
2023-10-24T04:23:03.712Z,100398.56
2023-10-24T04:25:31.507Z,100383.22
2023-10-24T04:27:58.897Z,100371.38
2023-10-24T04:30:27.186Z,100356.53
2023-10-24T04:32:53.809Z,100370.44
2023-10-24T04:35:20.301Z,100369.50
2023-10-24T04:37:48.931Z,100362.50
2023-10-24T04:40:15.898Z,100369.50
2023-10-24T04:42:42.563Z,100367.66
2023-10-24T04:45:09.490Z,100364.09
2023-10-24T04:47:36.028Z,100362.38
2023-10-24T04:50:04.627Z,100365.91
2023-10-24T04:52:31.141Z,100359.91
2023-10-24T04:54:57.678Z,100352.31
2023-10-24T04:57:24.110Z,100351.34
2023-10-24T04:59:50.608Z,100352.59
2023-10-24T05:02:17.158Z,100338.84
2023-10-24T05:04:43.801Z,100342.22
2023-10-24T05:07:10.677Z,100340.63
2023-10-24T05:09:37.257Z,100343.94
2023-10-24T05:12:04.373Z,100331.59
2023-10-24T05:14:30.819Z,100323.66
2023-10-24T05:16:57.332Z,100316.47
2023-10-24T05:19:23.896Z,100304.63
2023-10-24T05:21:50.396Z,100302.84
2023-10-24T05:24:16.933Z,100311.31
2023-10-24T05:26:43.442Z,100310.97
2023-10-24T05:29:09.927Z,100304.31
2023-10-24T05:31:36.806Z,100305.19
2023-10-24T05:34:03.398Z,100313.78
2023-10-24T05:36:29.864Z,100319.06
2023-10-24T05:38:56.825Z,100318.06
2023-10-24T05:41:23.363Z,100322.25
2023-10-24T05:43:50.272Z,100312.97
2023-10-24T05:46:16.898Z,100310.59
2023-10-24T05:48:43.475Z,100318.44
2023-10-24T05:51:13.136Z,100304.31
2023-10-24T05:53:39.966Z,100297.34
2023-10-24T05:56:06.982Z,100307.19
2023-10-24T05:58:33.718Z,100305.72
2023-10-24T06:01:00.461Z,100287.19
2023-10-24T06:03:27.663Z,100297.13
2023-10-24T06:05:54.389Z,100307.72
2023-10-24T06:08:20.930Z,100327.50
2023-10-24T06:10:58.308Z,100324.81
2023-10-24T06:13:25.809Z,100328.00
2023-10-24T06:15:52.661Z,100324.56
2023-10-24T06:18:20.138Z,100325.16
2023-10-24T06:20:47.974Z,100325.81
2023-10-24T06:23:15.055Z,100318.88
2023-10-24T06:25:42.380Z,100328.22
2023-10-24T06:28:09.850Z,100325.44
2023-10-24T06:30:36.896Z,100346.34
2023-10-24T06:33:03.892Z,100359.19
2023-10-24T06:35:30.701Z,100342.38
2023-10-24T06:37:58.030Z,100349.00
2023-10-24T06:40:24.884Z,100342.84
2023-10-24T06:42:52.577Z,100335.56
2023-10-24T06:45:19.212Z,100304.50
2023-10-24T06:47:45.820Z,100305.13
2023-10-24T06:50:12.490Z,100302.91
2023-10-24T06:52:39.527Z,100297.97
2023-10-24T06:55:06.608Z,100299.75
2023-10-24T06:57:33.173Z,100286.59
2023-10-24T06:59:59.620Z,100287.38
2023-10-24T07:02:26.357Z,100276.25
2023-10-24T07:04:53.005Z,100255.81
2023-10-24T07:07:20.464Z,100261.13
2023-10-24T07:09:47.199Z,100251.53
2023-10-24T07:12:13.681Z,100249.25
2023-10-24T07:14:40.369Z,100239.59
2023-10-24T07:17:06.952Z,100264.28
2023-10-24T07:19:33.548Z,100280.72
2023-10-24T07:22:00.066Z,100293.16
2023-10-24T07:24:26.526Z,100304.63
2023-10-24T07:26:53.094Z,100315.19
2023-10-24T07:29:19.623Z,100290.44
2023-10-24T07:31:46.168Z,100291.56
2023-10-24T07:34:12.697Z,100313.28
2023-10-24T07:36:39.178Z,100293.59
2023-10-24T07:39:06.766Z,100279.91
2023-10-24T07:41:33.306Z,100284.41
2023-10-24T07:44:00.701Z,100263.22
2023-10-24T07:46:28.711Z,100263.91
2023-10-24T07:48:55.342Z,100275.25
2023-10-24T07:51:21.924Z,100290.19
2023-10-24T07:53:48.417Z,100280.25
2023-10-24T07:56:15.248Z,100269.22
2023-10-24T07:58:41.804Z,100268.22
2023-10-24T08:01:08.897Z,100269.44
2023-10-24T08:03:35.570Z,100260.53
2023-10-24T08:06:02.151Z,100241.72
2023-10-24T08:08:28.713Z,100222.41
2023-10-24T08:10:55.363Z,100214.31
2023-10-24T08:13:22.214Z,100222.28
2023-10-24T08:15:52.995Z,100227.88
2023-10-24T08:18:19.986Z,100221.88
2023-10-24T08:20:46.520Z,100230.97
2023-10-24T08:23:13.866Z,100240.81
2023-10-24T08:25:41.098Z,100238.41
2023-10-24T08:28:07.912Z,100236.06
2023-10-24T08:30:35.052Z,100240.00
2023-10-24T08:33:01.890Z,100243.88
2023-10-24T08:35:28.662Z,100219.50
2023-10-24T08:37:55.462Z,100205.53
2023-10-24T08:40:22.203Z,100201.75
2023-10-24T08:42:48.797Z,100182.44
2023-10-24T08:45:19.047Z,100171.28
2023-10-24T08:47:49.040Z,100166.19
2023-10-24T08:50:15.885Z,100173.66
2023-10-24T08:52:45.317Z,100171.28
2023-10-24T08:55:12.819Z,100183.00
2023-10-24T08:57:44.204Z,100175.63
2023-10-24T09:00:13.140Z,100180.91
2023-10-24T09:02:42.195Z,100198.63
2023-10-24T09:05:13.249Z,100212.59
2023-10-24T09:07:39.922Z,100220.44
2023-10-24T09:10:07.466Z,100218.25
2023-10-24T09:12:35.710Z,100216.50
2023-10-24T09:15:02.831Z,100211.31
2023-10-24T09:17:32.004Z,100212.31
2023-10-24T09:19:59.341Z,100205.72
2023-10-24T09:22:28.524Z,100194.69
2023-10-24T09:24:58.501Z,100181.25
2023-10-24T09:27:25.978Z,100180.00
2023-10-24T09:29:53.029Z,100154.09
2023-10-24T09:32:21.487Z,100134.38
2023-10-24T09:34:49.469Z,100135.00
2023-10-24T09:37:17.319Z,100123.56
2023-10-24T09:39:52.647Z,100126.44
2023-10-24T09:42:27.719Z,100128.97
2023-10-24T09:45:01.713Z,100131.63
2023-10-24T09:47:29.056Z,100149.47
2023-10-24T09:49:57.058Z,100152.47
2023-10-24T09:52:26.959Z,100147.00
2023-10-24T09:54:54.220Z,100152.00
2023-10-24T09:57:22.536Z,100132.16
2023-10-24T09:59:57.425Z,100113.22
2023-10-24T10:02:25.633Z,100110.00
2023-10-24T10:04:52.432Z,100112.69
2023-10-24T10:07:21.589Z,100092.75
2023-10-24T10:09:51.489Z,100091.59
2023-10-24T10:12:20.975Z,100075.16
2023-10-24T10:15:09.086Z,100058.00
2023-10-24T10:17:58.495Z,100038.88
2023-10-24T10:20:47.150Z,100009.56
2023-10-24T10:23:29.275Z,100000.91
2023-10-24T10:26:20.056Z,100018.53
2023-10-24T10:28:56.650Z,100000.09
2023-10-24T10:32:38.125Z,99992.00
2023-10-24T10:34:38.595Z,99975.25
2023-10-24T10:37:07.170Z,99977.22
2023-10-24T10:39:33.913Z,99965.44
2023-10-24T10:42:00.408Z,99938.78
2023-10-24T10:44:44.775Z,99950.97
2023-10-24T10:47:16.951Z,99953.66
2023-10-24T10:49:49.644Z,99959.09
2023-10-24T10:52:23.098Z,99946.16
2023-10-24T10:55:00.258Z,99936.56
2023-10-24T10:57:31.080Z,99938.28
2023-10-24T11:00:05.913Z,99932.19
2023-10-24T11:02:32.434Z,99944.69
2023-10-24T11:04:59.026Z,99942.31
2023-10-24T11:07:51.631Z,99955.06
2023-10-24T11:10:19.377Z,99941.59
2023-10-24T11:12:49.649Z,99924.78
2023-10-24T11:15:18.011Z,99922.97
2023-10-24T11:17:47.214Z,99932.91
2023-10-24T11:20:22.373Z,99940.25
2023-10-24T11:22:50.826Z,99946.47
2023-10-24T11:25:17.979Z,99944.13
2023-10-24T11:27:45.327Z,99947.91
2023-10-24T11:30:12.271Z,99945.38
2023-10-24T11:32:38.940Z,99949.06
2023-10-24T11:35:06.112Z,99955.84
2023-10-24T11:37:33.323Z,99962.03
2023-10-24T11:40:00.217Z,99953.25
2023-10-24T11:42:28.001Z,99941.28
2023-10-24T11:44:54.633Z,99931.63
2023-10-24T11:47:21.309Z,99911.78
2023-10-24T11:49:48.279Z,99910.31
2023-10-24T11:52:15.050Z,99888.28
2023-10-24T11:54:41.752Z,99893.47
2023-10-24T11:57:08.736Z,99901.94
2023-10-24T11:59:36.456Z,99901.16
2023-10-24T12:02:04.647Z,99910.69
2023-10-24T12:04:32.385Z,99904.63
2023-10-24T12:07:09.111Z,99902.84
2023-10-24T12:09:36.648Z,99883.88
2023-10-24T12:12:06.608Z,99871.50
2023-10-24T12:14:36.262Z,99861.19
2023-10-24T12:17:02.841Z,99858.13
2023-10-24T12:19:29.456Z,99852.94
2023-10-24T12:21:56.159Z,99843.28
2023-10-24T12:24:22.781Z,99824.72
2023-10-24T12:26:49.620Z,99825.81
2023-10-24T12:29:16.113Z,99817.47
2023-10-24T12:31:42.802Z,99815.13
2023-10-24T12:34:09.599Z,99804.00
2023-10-24T12:36:36.197Z,99809.28
2023-10-24T12:39:02.787Z,99812.94
2023-10-24T12:41:30.398Z,99821.53
2023-10-24T12:43:57.106Z,99805.88
2023-10-24T12:46:23.756Z,99802.25
2023-10-24T12:49:00.962Z,99804.66
2023-10-24T12:51:29.198Z,99791.88
2023-10-24T12:53:55.838Z,99793.41
2023-10-24T12:56:22.372Z,99820.31
2023-10-24T12:58:51.649Z,99804.84
2023-10-24T13:01:20.165Z,99793.16
2023-10-24T13:03:49.105Z,99805.97
2023-10-24T13:06:15.895Z,99820.06
2023-10-24T13:08:42.530Z,99822.66
2023-10-24T13:11:09.270Z,99823.47
2023-10-24T13:13:36.094Z,99827.69
2023-10-24T13:16:03.001Z,99823.38
2023-10-24T13:18:29.600Z,99820.53
2023-10-24T13:20:56.604Z,99827.56
2023-10-24T13:23:23.591Z,99827.69
2023-10-24T13:25:50.289Z,99828.47
2023-10-24T13:28:17.324Z,99831.00
2023-10-24T13:30:54.857Z,99822.78
2023-10-24T13:33:31.490Z,99826.81
2023-10-24T13:36:11.721Z,99814.84
2023-10-24T13:38:39.947Z,99805.25
2023-10-24T13:41:06.711Z,99800.66
2023-10-24T13:43:34.545Z,99797.44
2023-10-24T13:46:02.026Z,99791.75
2023-10-24T13:48:31.886Z,99782.94
2023-10-24T13:50:58.424Z,99780.50
2023-10-24T13:53:25.041Z,99780.66
2023-10-24T13:55:52.030Z,99779.06
2023-10-24T13:58:18.747Z,99783.09
2023-10-24T14:00:46.240Z,99783.81
2023-10-24T14:03:14.656Z,99777.03
2023-10-24T14:05:43.400Z,99781.84
2023-10-24T14:08:09.934Z,99785.34
2023-10-24T14:10:36.522Z,99772.56
2023-10-24T14:13:04.232Z,99768.03
2023-10-24T14:15:31.023Z,99764.59
2023-10-24T14:18:00.979Z,99756.59
2023-10-24T14:20:27.723Z,99758.19
2023-10-24T14:22:54.391Z,99748.81
2023-10-24T14:25:20.884Z,99745.50
2023-10-24T14:27:47.344Z,99742.13
2023-10-24T14:30:14.566Z,99733.47
2023-10-24T14:32:41.181Z,99731.56
2023-10-24T14:35:08.097Z,99719.97
2023-10-24T14:37:34.830Z,99723.38
2023-10-24T14:40:01.354Z,99722.75
2023-10-24T14:42:28.105Z,99726.94
2023-10-24T14:44:54.820Z,99725.56
2023-10-24T14:47:21.677Z,99729.81
2023-10-24T14:49:48.230Z,99716.88
2023-10-24T14:52:15.856Z,99710.91
2023-10-24T14:54:42.659Z,99705.72
2023-10-24T14:57:11.489Z,99692.69
2023-10-24T14:59:37.972Z,99689.72
2023-10-24T15:02:05.841Z,99694.72
2023-10-24T15:04:32.474Z,99698.38
2023-10-24T15:06:58.959Z,99680.44
2023-10-24T15:09:25.889Z,99675.25
2023-10-24T15:11:52.643Z,99666.91
2023-10-24T15:14:19.288Z,99666.09
2023-10-24T15:16:45.940Z,99666.81
2023-10-24T15:19:12.671Z,99670.31
2023-10-24T15:21:39.462Z,99671.28
2023-10-24T15:24:09.891Z,99675.81
2023-10-24T15:26:36.612Z,99673.16
2023-10-24T15:29:03.940Z,99680.09
2023-10-24T15:31:30.478Z,99674.81
2023-10-24T15:33:57.016Z,99681.81
2023-10-24T15:36:23.609Z,99690.22
2023-10-24T15:38:51.032Z,99686.66
2023-10-24T15:41:17.831Z,99690.94
2023-10-24T15:43:44.621Z,99700.66
2023-10-24T15:46:17.425Z,99694.50
2023-10-24T15:48:44.053Z,99693.63
2023-10-24T15:51:10.581Z,99694.41
2023-10-24T15:53:37.299Z,99705.75
2023-10-24T15:56:08.025Z,99703.16
2023-10-24T15:58:35.655Z,99716.94
2023-10-24T16:01:13.231Z,99712.44
2023-10-24T16:03:40.251Z,99724.47
2023-10-24T16:06:07.327Z,99723.38
2023-10-24T16:08:34.982Z,99718.19
2023-10-24T16:11:01.639Z,99714.03
2023-10-24T16:13:28.212Z,99718.50
2023-10-24T16:15:54.826Z,99719.28
2023-10-24T16:18:21.559Z,99721.78
2023-10-24T16:20:48.208Z,99712.16
2023-10-24T16:23:14.980Z,99711.19
2023-10-24T16:25:41.494Z,99696.63
2023-10-24T16:28:07.962Z,99694.22
2023-10-24T16:30:34.401Z,99693.84
2023-10-24T16:33:01.026Z,99696.81
2023-10-24T16:35:27.653Z,99692.63
2023-10-24T16:37:54.142Z,99694.22
2023-10-24T16:40:20.591Z,99688.66
2023-10-24T16:42:47.029Z,99675.72
2023-10-24T16:45:13.658Z,99674.47
2023-10-24T16:47:40.141Z,99670.19
2023-10-24T16:50:07.148Z,99676.63
2023-10-24T16:52:33.656Z,99687.88
2023-10-24T16:55:00.135Z,99676.81
2023-10-24T16:57:26.685Z,99668.72
2023-10-24T16:59:53.233Z,99678.94
2023-10-24T17:02:20.956Z,99679.31
2023-10-24T17:04:47.605Z,99670.19
2023-10-24T17:07:14.136Z,99667.59
2023-10-24T17:09:42.303Z,99669.19
2023-10-24T17:12:09.171Z,99669.88
2023-10-24T17:14:35.789Z,99669.16
2023-10-24T17:17:02.322Z,99679.25
2023-10-24T17:19:28.830Z,99676.44
2023-10-24T17:21:55.420Z,99680.50
2023-10-24T17:24:21.886Z,99674.22
2023-10-24T17:26:48.357Z,99670.22
2023-10-24T17:29:14.897Z,99666.09
2023-10-24T17:31:41.430Z,99669.34
2023-10-24T17:34:09.977Z,99670.41
2023-10-24T17:36:36.426Z,99665.22
2023-10-24T17:39:02.997Z,99660.75
2023-10-24T17:41:29.552Z,99655.44
2023-10-24T17:43:57.115Z,99651.28
2023-10-24T17:46:26.213Z,99653.09
2023-10-24T17:48:54.668Z,99652.28
2023-10-24T17:51:21.166Z,99655.75
2023-10-24T17:53:47.638Z,99658.81
2023-10-24T17:56:14.142Z,99649.91
2023-10-24T17:58:40.825Z,99663.56
2023-10-24T18:01:15.100Z,99666.22
2023-10-24T18:03:41.735Z,99662.00
2023-10-24T18:06:09.660Z,99682.28
2023-10-24T18:08:36.329Z,99683.06
2023-10-24T18:11:03.662Z,99680.50
2023-10-24T18:13:30.189Z,99665.94
2023-10-24T18:15:57.388Z,99680.31
2023-10-24T18:18:23.962Z,99685.66
2023-10-24T18:20:50.485Z,99676.91
2023-10-24T18:23:17.781Z,99673.81
2023-10-24T18:25:52.040Z,99681.16
2023-10-24T18:28:19.293Z,99686.66
2023-10-24T18:30:45.988Z,99688.63
2023-10-24T18:33:12.643Z,99683.19
2023-10-24T18:35:39.318Z,99688.53
2023-10-24T18:38:05.778Z,99693.72
2023-10-24T18:40:32.285Z,99690.41
2023-10-24T18:42:58.754Z,99688.38
2023-10-24T18:45:25.352Z,99697.13
2023-10-24T18:47:52.109Z,99694.81
2023-10-24T18:50:22.560Z,99692.84
2023-10-24T18:52:52.220Z,99701.47
2023-10-24T18:55:18.826Z,99702.38
2023-10-24T18:57:45.345Z,99695.59
2023-10-24T19:00:12.348Z,99695.53
2023-10-24T19:02:38.827Z,99687.41
2023-10-24T19:05:05.525Z,99694.16
2023-10-24T19:07:32.027Z,99695.22
2023-10-24T19:09:58.834Z,99697.19
2023-10-24T19:12:25.869Z,99697.66
2023-10-24T19:14:52.556Z,99696.41
2023-10-24T19:17:19.372Z,99691.84
2023-10-24T19:19:46.112Z,99697.66
2023-10-24T19:22:13.090Z,99690.59
2023-10-24T19:24:39.745Z,99691.69
2023-10-24T19:27:06.797Z,99690.59
2023-10-24T19:29:33.482Z,99679.81
2023-10-24T19:32:00.334Z,99681.66
2023-10-24T19:34:27.047Z,99686.84
2023-10-24T19:36:55.420Z,99677.22
2023-10-24T19:39:22.916Z,99689.16
2023-10-24T19:41:50.435Z,99686.50
2023-10-24T19:44:17.184Z,99691.84
2023-10-24T19:46:47.224Z,99695.41
2023-10-24T19:49:14.067Z,99700.59
2023-10-24T19:51:40.860Z,99705.41
2023-10-24T19:54:07.808Z,99706.28
2023-10-24T19:56:35.440Z,99712.91
2023-10-24T19:59:02.252Z,99711.13
2023-10-24T20:01:32.338Z,99717.34
2023-10-24T20:03:59.537Z,99714.75
2023-10-24T20:06:32.527Z,99717.34
2023-10-24T20:09:01.570Z,99712.28
2023-10-24T20:12:34.544Z,99707.91
2023-10-24T20:14:18.154Z,99710.47
2023-10-24T20:16:49.134Z,99712.00
2023-10-24T20:19:16.107Z,99703.69
2023-10-24T20:21:42.799Z,99700.13
2023-10-24T20:24:09.918Z,99705.41
2023-10-24T20:26:37.291Z,99695.88
2023-10-24T20:29:04.059Z,99703.63
2023-10-24T20:31:30.607Z,99705.59
2023-10-24T20:33:58.470Z,99705.59
2023-10-24T20:36:25.032Z,99713.63
2023-10-24T20:38:51.517Z,99706.47
2023-10-24T20:41:19.014Z,99705.59
2023-10-24T20:43:45.509Z,99706.41
2023-10-24T20:46:12.012Z,99708.28
2023-10-24T20:48:38.604Z,99701.41
2023-10-24T20:51:05.131Z,99698.44
2023-10-24T20:53:31.905Z,99704.50
2023-10-24T20:55:59.208Z,99705.69
2023-10-24T20:58:25.716Z,99712.00
2023-10-24T21:00:52.937Z,99705.97
2023-10-24T21:03:19.704Z,99709.44
2023-10-24T21:05:46.298Z,99711.47
2023-10-24T21:08:12.819Z,99715.50
2023-10-24T21:10:39.485Z,99722.59
2023-10-24T21:13:07.089Z,99720.84
2023-10-24T21:15:33.698Z,99717.53
2023-10-24T21:18:00.331Z,99728.22
2023-10-24T21:20:26.846Z,99729.66
2023-10-24T21:22:53.327Z,99730.47
2023-10-24T21:25:20.742Z,99741.69
2023-10-24T21:27:47.327Z,99742.75
2023-10-24T21:30:13.900Z,99745.25
2023-10-24T21:32:40.449Z,99753.72
2023-10-24T21:35:07.360Z,99753.63
2023-10-24T21:37:33.962Z,99758.81
2023-10-24T21:40:00.524Z,99762.81
2023-10-24T21:42:27.171Z,99755.56
2023-10-24T21:44:53.651Z,99758.13
2023-10-24T21:47:20.214Z,99758.44
2023-10-24T21:49:46.698Z,99754.69
2023-10-24T21:52:13.180Z,99762.50
2023-10-24T21:54:39.797Z,99758.44
2023-10-24T21:57:06.278Z,99759.31
2023-10-24T21:59:32.717Z,99751.97
2023-10-24T22:01:59.178Z,99749.94
2023-10-24T22:04:25.857Z,99742.63
2023-10-24T22:06:52.362Z,99750.50
2023-10-24T22:09:19.078Z,99753.19
2023-10-24T22:11:45.537Z,99754.84
2023-10-24T22:14:12.105Z,99757.97
2023-10-24T22:16:39.053Z,99749.22
2023-10-24T22:19:05.743Z,99762.25
2023-10-24T22:21:32.295Z,99758.75
2023-10-24T22:23:58.791Z,99762.84
2023-10-24T22:26:25.253Z,99773.28
2023-10-24T22:28:51.786Z,99770.78
2023-10-24T22:31:18.322Z,99768.03
2023-10-24T22:33:44.856Z,99755.59
2023-10-24T22:36:11.428Z,99752.03
2023-10-24T22:38:37.873Z,99754.72
2023-10-24T22:41:04.371Z,99753.22
2023-10-24T22:43:32.991Z,99750.81
2023-10-24T22:45:59.531Z,99761.16
2023-10-24T22:48:26.080Z,99764.56
2023-10-24T22:50:52.577Z,99765.50
2023-10-24T22:53:19.049Z,99766.16
2023-10-24T22:55:45.527Z,99760.16
2023-10-24T22:58:12.070Z,99764.56
2023-10-24T23:00:38.645Z,99767.75
2023-10-24T23:03:05.337Z,99771.94
2023-10-24T23:05:31.938Z,99773.63
2023-10-24T23:07:58.385Z,99782.09
2023-10-24T23:10:25.002Z,99788.03
2023-10-24T23:12:51.534Z,99783.75
2023-10-24T23:15:18.132Z,99782.97
2023-10-24T23:17:44.642Z,99774.34
2023-10-24T23:20:11.506Z,99770.75
2023-10-24T23:22:37.957Z,99761.19
2023-10-24T23:25:04.837Z,99771.75
2023-10-24T23:27:31.469Z,99766.75
2023-10-24T23:29:57.971Z,99769.53
2023-10-24T23:32:24.544Z,99777.19
2023-10-24T23:34:51.119Z,99770.13
2023-10-24T23:37:17.593Z,99768.47
2023-10-24T23:39:44.215Z,99763.47
2023-10-24T23:42:11.306Z,99758.72
2023-10-24T23:44:37.787Z,99752.00
2023-10-24T23:47:04.548Z,99745.34
2023-10-24T23:49:31.113Z,99736.59
2023-10-24T23:51:57.641Z,99729.84
2023-10-24T23:54:24.133Z,99740.34
2023-10-24T23:56:50.572Z,99729.31
2023-10-24T23:59:17.130Z,99729.31
